createdAt,value
2022-10-09T00:00:51.849Z,21.90
2022-10-09T00:03:22.840Z,22.93
2022-10-09T00:05:55.074Z,22.10
2022-10-09T00:08:28.809Z,24.53
2022-10-09T00:11:00.411Z,23.37
2022-10-09T00:13:31.652Z,25.57
2022-10-09T00:16:07.097Z,25.10
2022-10-09T00:18:38.975Z,26.23
2022-10-09T00:21:18.967Z,24.77
2022-10-09T00:23:52.537Z,25.77
2022-10-09T00:26:23.574Z,25.87
2022-10-09T00:28:54.438Z,27.00
2022-10-09T00:31:26.290Z,25.00
2022-10-09T00:33:57.333Z,26.20
2022-10-09T00:36:30.098Z,25.17
2022-10-09T00:39:03.148Z,25.70
2022-10-09T00:41:35.876Z,24.20
2022-10-09T00:44:28.605Z,23.10
2022-10-09T00:46:59.660Z,24.70
2022-10-09T00:49:33.075Z,24.37
2022-10-09T00:52:09.160Z,25.07
2022-10-09T00:54:44.228Z,24.77
2022-10-09T00:57:15.636Z,25.33
2022-10-09T00:59:46.674Z,25.23
2022-10-09T01:02:18.206Z,25.20
2022-10-09T01:04:50.499Z,25.50
2022-10-09T01:07:37.359Z,24.97
2022-10-09T01:10:24.570Z,25.17
2022-10-09T01:13:09.983Z,27.33
2022-10-09T01:15:51.136Z,25.70
2022-10-09T01:18:32.292Z,26.17
2022-10-09T01:21:09.991Z,26.17
2022-10-09T01:24:12.405Z,27.70
2022-10-09T01:27:12.667Z,26.87
2022-10-09T01:29:48.340Z,27.43
2022-10-09T01:32:23.920Z,26.43
2022-10-09T01:34:56.633Z,26.90
2022-10-09T01:37:30.465Z,27.37
2022-10-09T01:40:03.260Z,27.17
2022-10-09T01:42:39.790Z,27.37
2022-10-09T01:45:13.454Z,27.90
2022-10-09T01:47:44.774Z,27.40
2022-10-09T01:50:26.252Z,28.10
2022-10-09T01:53:02.898Z,28.47
2022-10-09T01:55:43.042Z,29.47
2022-10-09T01:58:26.056Z,29.23
2022-10-09T02:01:03.281Z,28.93
2022-10-09T02:03:36.640Z,29.33
2022-10-09T02:06:10.509Z,29.07
2022-10-09T02:08:44.213Z,30.13
2022-10-09T02:11:19.381Z,28.97
2022-10-09T02:13:54.571Z,30.77
2022-10-09T02:16:37.013Z,30.90
2022-10-09T02:19:14.892Z,29.77
2022-10-09T02:21:53.663Z,30.40
2022-10-09T02:24:27.248Z,29.03
2022-10-09T02:26:59.147Z,29.10
2022-10-09T02:29:33.464Z,29.43
2022-10-09T02:32:04.973Z,29.57
2022-10-09T02:34:36.009Z,28.67
2022-10-09T02:37:09.056Z,28.60
2022-10-09T02:39:40.619Z,28.00
2022-10-09T02:42:12.069Z,28.30
2022-10-09T02:44:45.947Z,27.83
2022-10-09T02:47:17.082Z,27.40
2022-10-09T02:49:48.172Z,27.20
2022-10-09T02:52:19.156Z,27.03
2022-10-09T02:54:50.215Z,26.37
2022-10-09T02:57:21.435Z,27.50
2022-10-09T02:59:54.822Z,26.00
2022-10-09T03:02:26.449Z,25.93
2022-10-09T03:04:57.562Z,26.70
2022-10-09T03:07:29.108Z,25.50
2022-10-09T03:10:02.406Z,25.00
2022-10-09T03:12:33.889Z,25.17
2022-10-09T03:15:07.623Z,26.80
2022-10-09T03:17:39.109Z,25.10
2022-10-09T03:20:11.593Z,24.23
2022-10-09T03:22:42.874Z,23.97
2022-10-09T03:25:14.488Z,25.07
2022-10-09T03:27:46.039Z,23.93
2022-10-09T03:30:21.346Z,24.33
2022-10-09T03:32:52.404Z,23.53
2022-10-09T03:35:23.534Z,24.67
2022-10-09T03:37:54.181Z,23.43
2022-10-09T03:40:25.816Z,23.27
2022-10-09T03:42:56.834Z,23.50
2022-10-09T03:45:30.737Z,24.57
2022-10-09T03:48:01.753Z,23.17
2022-10-09T03:50:32.819Z,24.03
2022-10-09T03:53:03.879Z,24.10
2022-10-09T03:55:35.696Z,24.03
2022-10-09T03:58:06.980Z,23.73
2022-10-09T04:00:40.202Z,24.23
2022-10-09T04:03:11.191Z,24.17
2022-10-09T04:05:42.481Z,23.37
2022-10-09T04:08:13.653Z,23.47
2022-10-09T04:10:44.691Z,24.47
2022-10-09T04:13:15.989Z,24.27
2022-10-09T04:15:56.085Z,24.40
2022-10-09T04:18:27.520Z,23.33
2022-10-09T04:21:00.487Z,23.47
2022-10-09T04:23:31.684Z,24.37
2022-10-09T04:26:04.268Z,23.37
2022-10-09T04:28:36.770Z,23.10
2022-10-09T04:31:10.271Z,23.33
2022-10-09T04:33:41.474Z,24.20
2022-10-09T04:36:12.529Z,24.07
2022-10-09T04:38:43.688Z,25.07
2022-10-09T04:41:14.998Z,23.93
2022-10-09T04:43:46.456Z,24.13
2022-10-09T04:46:20.316Z,23.90
2022-10-09T04:48:51.733Z,23.97
2022-10-09T04:51:24.217Z,23.73
2022-10-09T04:54:00.318Z,24.83
2022-10-09T04:56:31.731Z,24.90
2022-10-09T04:59:02.885Z,25.63
2022-10-09T05:01:38.538Z,25.43
2022-10-09T05:04:10.222Z,24.33
2022-10-09T05:06:41.307Z,24.57
2022-10-09T05:09:12.688Z,24.40
2022-10-09T05:11:44.199Z,25.07
2022-10-09T05:14:15.548Z,24.53
2022-10-09T05:17:11.995Z,26.00
2022-10-09T05:19:39.849Z,24.10
2022-10-09T05:22:10.931Z,24.47
2022-10-09T05:24:42.414Z,23.63
2022-10-09T05:27:15.748Z,24.80
2022-10-09T05:29:47.254Z,25.10
2022-10-09T05:32:21.477Z,24.33
2022-10-09T05:34:52.726Z,24.57
2022-10-09T05:37:23.778Z,24.93
2022-10-09T05:39:54.760Z,25.27
2022-10-09T05:42:26.230Z,24.90
2022-10-09T05:44:57.393Z,25.13
2022-10-09T05:47:32.959Z,24.93
2022-10-09T05:50:04.416Z,24.83
2022-10-09T05:52:37.168Z,24.80
2022-10-09T05:55:09.366Z,24.03
2022-10-09T05:57:41.255Z,25.47
2022-10-09T06:00:14.771Z,25.30
2022-10-09T06:02:48.296Z,25.37
2022-10-09T06:05:19.646Z,24.37
2022-10-09T06:07:51.622Z,24.93
2022-10-09T06:10:23.559Z,24.77
2022-10-09T06:12:55.069Z,24.70
2022-10-09T06:15:26.237Z,25.50
2022-10-09T06:18:00.001Z,23.97
2022-10-09T06:20:31.072Z,23.80
2022-10-09T06:23:02.205Z,24.40
2022-10-09T06:25:33.225Z,24.43
2022-10-09T06:28:04.200Z,24.17
2022-10-09T06:30:38.906Z,24.10
2022-10-09T06:33:13.340Z,23.43
2022-10-09T06:35:44.599Z,23.30
2022-10-09T06:38:16.331Z,23.07
2022-10-09T06:40:48.025Z,22.23
2022-10-09T06:43:20.109Z,23.40
2022-10-09T06:45:51.225Z,22.63
2022-10-09T06:48:24.367Z,21.97
2022-10-09T06:50:56.133Z,23.33
2022-10-09T06:53:28.028Z,22.37
2022-10-09T06:56:01.158Z,22.53
2022-10-09T06:58:32.213Z,22.80
2022-10-09T07:01:08.692Z,21.40
2022-10-09T07:03:42.975Z,22.10
2022-10-09T07:06:16.031Z,21.00
2022-10-09T07:08:48.869Z,20.93
2022-10-09T07:11:22.391Z,22.93
2022-10-09T07:13:55.005Z,21.53
2022-10-09T07:16:28.522Z,22.07
2022-10-09T07:19:05.183Z,21.30
2022-10-09T07:21:36.837Z,21.83
2022-10-09T07:24:09.116Z,22.23
2022-10-09T07:26:42.473Z,22.10
2022-10-09T07:29:15.853Z,21.13
2022-10-09T07:31:47.034Z,20.73
2022-10-09T07:34:20.018Z,22.07
2022-10-09T07:36:51.455Z,21.47
2022-10-09T07:39:22.750Z,21.90
2022-10-09T07:41:55.179Z,21.73
2022-10-09T07:44:26.397Z,22.10
2022-10-09T07:46:57.290Z,21.73
2022-10-09T07:49:30.942Z,22.00
2022-10-09T07:52:03.019Z,22.30
2022-10-09T07:54:34.000Z,23.53
2022-10-09T07:57:05.070Z,23.60
2022-10-09T07:59:36.605Z,23.33
2022-10-09T08:02:07.711Z,23.27
2022-10-09T08:04:41.498Z,24.23
2022-10-09T08:07:13.060Z,23.27
2022-10-09T08:09:44.162Z,23.30
2022-10-09T08:12:15.458Z,22.93
2022-10-09T08:14:47.968Z,23.63
2022-10-09T08:17:19.194Z,23.03
2022-10-09T08:19:52.242Z,23.50
2022-10-09T08:22:23.657Z,23.77
2022-10-09T08:24:54.674Z,24.10
2022-10-09T08:27:25.604Z,22.83
2022-10-09T08:29:56.680Z,22.70
2022-10-09T08:32:28.132Z,22.53
2022-10-09T08:35:01.108Z,22.17
2022-10-09T08:37:32.024Z,22.43
2022-10-09T08:40:02.985Z,22.37
2022-10-09T08:42:43.032Z,22.37
2022-10-09T08:45:19.676Z,21.43
2022-10-09T08:47:54.153Z,21.37
2022-10-09T08:50:31.479Z,21.50
2022-10-09T08:53:08.211Z,22.27
2022-10-09T08:55:44.776Z,22.27
2022-10-09T08:58:19.209Z,21.60
2022-10-09T09:00:53.768Z,22.73
2022-10-09T09:03:43.030Z,20.87
2022-10-09T09:06:23.872Z,22.00
2022-10-09T09:09:02.954Z,21.90
2022-10-09T09:11:42.931Z,22.33
2022-10-09T09:14:25.985Z,21.87
2022-10-09T09:17:04.748Z,21.47
2022-10-09T09:19:46.791Z,21.73
2022-10-09T09:22:20.722Z,22.10
2022-10-09T09:24:54.609Z,22.13
2022-10-09T09:27:30.639Z,23.70
2022-10-09T09:30:05.736Z,22.90
2022-10-09T09:32:37.229Z,23.30
2022-10-09T09:35:16.637Z,23.57
2022-10-09T09:37:50.908Z,23.57
2022-10-09T09:40:39.878Z,25.57
2022-10-09T09:43:20.530Z,24.90
2022-10-09T09:45:52.749Z,23.67
2022-10-09T09:48:29.766Z,23.77
2022-10-09T09:51:23.359Z,24.10
2022-10-09T09:53:57.333Z,24.60
2022-10-09T09:57:06.840Z,24.73
2022-10-09T09:59:34.649Z,24.70
2022-10-09T10:02:14.068Z,24.40
2022-10-09T10:04:54.453Z,25.83
2022-10-09T10:07:33.631Z,25.50
2022-10-09T10:10:23.957Z,25.83
2022-10-09T10:12:59.380Z,24.83
2022-10-09T10:15:32.420Z,26.07
2022-10-09T10:18:06.253Z,26.60
2022-10-09T10:20:45.171Z,25.23
2022-10-09T10:23:38.882Z,28.20
2022-10-09T10:26:24.935Z,28.10
2022-10-09T10:29:01.064Z,28.50
2022-10-09T10:31:54.406Z,27.70
2022-10-09T10:34:29.911Z,28.30
2022-10-09T10:37:06.718Z,28.67
2022-10-09T10:39:44.611Z,27.63
2022-10-09T10:42:24.985Z,30.83
2022-10-09T10:45:05.310Z,29.87
2022-10-09T10:47:42.984Z,29.70
2022-10-09T10:50:18.748Z,30.43
2022-10-09T10:53:04.388Z,29.03
2022-10-09T10:55:47.080Z,32.20
2022-10-09T10:58:28.737Z,30.40
2022-10-09T11:01:15.116Z,31.40
2022-10-09T11:04:01.473Z,32.00
2022-10-09T11:06:39.956Z,31.33
2022-10-09T11:09:21.284Z,33.07
2022-10-09T11:11:58.433Z,31.67
2022-10-09T11:14:44.496Z,31.60
2022-10-09T11:17:27.359Z,33.30
2022-10-09T11:20:15.438Z,33.87
2022-10-09T11:23:05.852Z,34.80
2022-10-09T11:25:46.690Z,33.43
2022-10-09T11:28:21.645Z,36.47
2022-10-09T11:30:59.008Z,36.73
2022-10-09T11:33:37.614Z,38.13
2022-10-09T11:36:18.173Z,35.10
2022-10-09T11:38:54.637Z,36.17
2022-10-09T11:41:25.977Z,38.57
2022-10-09T11:44:13.247Z,38.17
2022-10-09T11:46:52.784Z,40.07
2022-10-09T11:49:30.540Z,40.13
2022-10-09T11:52:07.284Z,40.27
2022-10-09T11:54:39.207Z,40.63
2022-10-09T11:57:15.014Z,40.43
2022-10-09T11:59:46.124Z,40.20
2022-10-09T12:02:30.166Z,41.83
2022-10-09T12:05:02.570Z,40.50
2022-10-09T12:07:36.847Z,40.60
2022-10-09T12:10:12.291Z,39.17
2022-10-09T12:12:43.547Z,41.13
2022-10-09T12:15:27.585Z,42.17
2022-10-09T12:18:00.672Z,39.60
2022-10-09T12:20:32.317Z,39.63
2022-10-09T12:25:57.283Z,40.33
2022-10-09T12:28:35.394Z,40.10
2022-10-09T12:31:11.753Z,39.90
2022-10-09T12:33:49.236Z,40.73
2022-10-09T12:36:27.827Z,41.10
2022-10-09T12:38:59.120Z,40.90
2022-10-09T12:41:35.566Z,41.37
2022-10-09T12:44:09.770Z,40.50
2022-10-09T12:46:42.497Z,41.70
2022-10-09T12:49:23.585Z,41.23
2022-10-09T12:51:56.757Z,42.17
2022-10-09T12:54:31.342Z,43.07
2022-10-09T12:57:03.919Z,43.47
2022-10-09T12:59:36.549Z,42.60
2022-10-09T13:02:08.269Z,44.00
2022-10-09T13:04:41.490Z,43.47
2022-10-09T13:07:24.389Z,42.27
2022-10-09T13:10:03.322Z,42.90
2022-10-09T13:12:35.640Z,43.90
2022-10-09T13:15:09.676Z,42.43
2022-10-09T13:17:42.392Z,42.57
2022-10-09T13:23:35.927Z,42.40
2022-10-09T13:26:09.611Z,40.90
2022-10-09T13:28:41.023Z,42.33
2022-10-09T13:31:12.407Z,41.70
2022-10-09T13:33:43.671Z,42.27
2022-10-09T13:36:16.050Z,41.17
2022-10-09T13:38:50.959Z,40.10
2022-10-09T13:41:26.542Z,40.67
2022-10-09T13:43:57.496Z,41.17
2022-10-09T13:46:28.762Z,40.80
2022-10-09T13:49:00.713Z,40.50
2022-10-09T13:51:34.445Z,40.27
2022-10-09T13:54:07.805Z,40.80
2022-10-09T13:56:39.017Z,40.97
2022-10-09T13:59:10.066Z,41.27
2022-10-09T14:01:41.600Z,41.90
2022-10-09T14:04:12.960Z,41.90
2022-10-09T14:06:44.012Z,41.90
2022-10-09T14:09:17.116Z,42.60
2022-10-09T14:11:48.782Z,41.20
2022-10-09T14:14:19.889Z,41.70
2022-10-09T14:16:51.666Z,41.43
2022-10-09T14:19:27.897Z,42.67
2022-10-09T14:21:59.808Z,43.73
2022-10-09T14:24:32.730Z,42.70
2022-10-09T14:27:03.798Z,42.17
2022-10-09T14:29:34.884Z,42.30
2022-10-09T14:32:05.882Z,41.07
2022-10-09T14:34:36.902Z,41.93
2022-10-09T14:37:18.942Z,43.83
2022-10-09T14:40:01.007Z,42.57
2022-10-09T14:42:32.527Z,42.97
2022-10-09T14:45:03.590Z,41.33
2022-10-09T14:47:34.863Z,41.23
2022-10-09T14:50:06.755Z,42.63
2022-10-09T14:52:38.025Z,41.00
2022-10-09T14:55:12.707Z,41.90
2022-10-09T14:57:44.546Z,42.03
2022-10-09T15:00:17.198Z,42.17
2022-10-09T15:02:48.220Z,41.50
2022-10-09T15:05:19.438Z,41.10
2022-10-09T15:07:50.705Z,42.57
2022-10-09T15:10:24.175Z,43.03
2022-10-09T15:12:55.515Z,42.10
2022-10-09T15:15:30.308Z,41.27
2022-10-09T15:18:03.747Z,42.00
2022-10-09T15:20:34.797Z,43.37
2022-10-09T15:23:06.065Z,42.83
2022-10-09T15:25:40.444Z,42.47
2022-10-09T15:28:12.638Z,41.83
2022-10-09T15:30:48.007Z,44.23
2022-10-09T15:33:19.497Z,44.10
2022-10-09T15:35:50.634Z,42.57
2022-10-09T15:38:23.671Z,42.23
2022-10-09T15:40:58.535Z,42.97
2022-10-09T15:43:30.713Z,42.23
2022-10-09T15:46:06.759Z,43.00
2022-10-09T15:48:37.796Z,42.23
2022-10-09T15:51:14.243Z,40.90
2022-10-09T15:53:45.760Z,42.33
2022-10-09T15:56:22.277Z,44.03
2022-10-09T15:58:53.875Z,44.93
2022-10-09T16:01:27.178Z,42.07
2022-10-09T16:03:58.428Z,42.70
2022-10-09T16:06:29.538Z,42.37
2022-10-09T16:09:01.887Z,45.77
2022-10-09T16:11:35.602Z,45.47
2022-10-09T16:14:06.807Z,52.97
2022-10-09T16:16:38.193Z,55.30
2022-10-09T16:19:10.632Z,57.30
2022-10-09T16:21:41.681Z,60.17
2022-10-09T16:24:12.733Z,65.50
2022-10-09T16:26:45.965Z,66.50
2022-10-09T16:29:17.555Z,72.67
2022-10-09T16:31:49.034Z,79.50
2022-10-09T16:34:20.069Z,79.47
2022-10-09T16:36:51.433Z,83.53
2022-10-09T16:39:25.003Z,87.20
2022-10-09T16:41:58.815Z,93.47
2022-10-09T16:44:32.323Z,83.73
2022-10-09T16:47:03.994Z,80.00
2022-10-09T16:49:35.043Z,78.47
2022-10-09T16:52:06.627Z,73.10
2022-10-09T16:54:38.693Z,73.67
2022-10-09T16:57:12.162Z,74.40
2022-10-09T16:59:43.430Z,73.90
2022-10-09T17:02:15.062Z,76.40
2022-10-09T17:04:47.909Z,72.40
2022-10-09T17:07:19.303Z,73.27
2022-10-09T17:09:50.400Z,70.53
2022-10-09T17:12:23.634Z,71.93
2022-10-09T17:14:54.680Z,69.63
2022-10-09T17:17:26.409Z,71.53
2022-10-09T17:19:57.470Z,69.43
2022-10-09T17:22:28.982Z,68.23
2022-10-09T17:25:00.030Z,67.77
2022-10-09T17:27:34.556Z,63.97
2022-10-09T17:30:05.724Z,61.90
2022-10-09T17:32:36.841Z,60.77
2022-10-09T17:35:08.894Z,59.53
2022-10-09T17:37:39.897Z,58.70
2022-10-09T17:40:12.548Z,52.10
2022-10-09T17:42:45.520Z,51.27
2022-10-09T17:45:16.682Z,50.67
2022-10-09T17:47:47.796Z,48.47
2022-10-09T17:50:18.954Z,47.37
2022-10-09T17:52:50.182Z,46.17
2022-10-09T17:55:21.428Z,47.00
2022-10-09T17:57:56.109Z,45.17
2022-10-09T18:00:27.160Z,45.43
2022-10-09T18:02:59.177Z,43.40
2022-10-09T18:05:30.225Z,45.37
2022-10-09T18:08:03.807Z,46.17
2022-10-09T18:10:35.289Z,46.47
2022-10-09T18:13:08.943Z,45.20
2022-10-09T18:15:40.845Z,45.70
2022-10-09T18:18:12.335Z,46.70
2022-10-09T18:20:43.618Z,45.37
2022-10-09T18:23:17.396Z,45.50
2022-10-09T18:25:50.988Z,44.63
2022-10-09T18:28:25.627Z,45.97
2022-10-09T18:30:57.007Z,44.17
2022-10-09T18:33:30.065Z,44.30
2022-10-09T18:36:06.474Z,44.63
2022-10-09T18:38:38.197Z,47.23
2022-10-09T18:41:12.366Z,50.97
2022-10-09T18:43:45.817Z,49.50
2022-10-09T18:46:17.501Z,49.47
2022-10-09T18:48:50.637Z,46.67
2022-10-09T18:51:24.750Z,45.50
2022-10-09T18:53:58.813Z,45.77
2022-10-09T18:56:31.531Z,46.50
2022-10-09T18:59:07.806Z,49.20
2022-10-09T19:01:39.653Z,48.87
2022-10-09T19:04:10.592Z,47.33
2022-10-09T19:06:42.293Z,47.23
2022-10-09T19:09:13.531Z,48.00
2022-10-09T19:11:44.646Z,47.97
2022-10-09T19:14:18.830Z,48.13
2022-10-09T19:16:49.976Z,48.03
2022-10-09T19:19:21.023Z,49.87
2022-10-09T19:21:52.475Z,56.53
2022-10-09T19:24:24.777Z,63.87
2022-10-09T19:26:55.992Z,58.10
2022-10-09T19:29:29.691Z,57.90
2022-10-09T19:32:00.712Z,58.60
2022-10-09T19:34:33.359Z,55.67
2022-10-09T19:37:06.275Z,54.17
2022-10-09T19:39:37.738Z,53.67
2022-10-09T19:42:08.949Z,53.20
2022-10-09T19:44:46.201Z,46.97
2022-10-09T19:47:19.571Z,43.27
2022-10-09T19:49:51.246Z,41.33
2022-10-09T19:52:23.988Z,38.87
2022-10-09T19:54:55.576Z,36.40
2022-10-09T19:57:27.530Z,36.00
2022-10-09T20:00:00.128Z,35.40
2022-10-09T20:02:31.676Z,34.67
2022-10-09T20:05:02.437Z,32.93
2022-10-09T20:07:33.508Z,30.60
2022-10-09T20:10:04.977Z,29.90
2022-10-09T20:12:36.132Z,28.17
2022-10-09T20:15:10.796Z,28.30
2022-10-09T20:17:42.385Z,28.70
2022-10-09T20:20:14.081Z,27.70
2022-10-09T20:22:45.093Z,26.40
2022-10-09T20:25:16.609Z,25.93
2022-10-09T20:27:48.645Z,23.63
2022-10-09T20:30:24.408Z,24.37
2022-10-09T20:32:59.161Z,24.47
2022-10-09T20:35:30.668Z,24.40
2022-10-09T20:38:02.014Z,23.23
2022-10-09T20:40:35.568Z,22.83
2022-10-09T20:43:07.834Z,24.03
2022-10-09T20:45:45.270Z,27.50
2022-10-09T20:48:16.626Z,25.37
2022-10-09T20:50:47.926Z,22.73
2022-10-09T20:53:19.457Z,23.20
2022-10-09T20:55:51.978Z,24.23
2022-10-09T20:58:24.450Z,25.33
2022-10-09T21:00:57.553Z,22.57
2022-10-09T21:03:29.133Z,22.73
2022-10-09T21:06:00.811Z,23.20
2022-10-09T21:08:32.036Z,23.33
2022-10-09T21:11:03.551Z,26.27
2022-10-09T21:13:34.756Z,32.60
2022-10-09T21:16:08.514Z,30.60
2022-10-09T21:18:40.993Z,31.60
2022-10-09T21:21:13.969Z,35.97
2022-10-09T21:23:46.953Z,35.03
2022-10-09T21:26:19.161Z,39.10
2022-10-09T21:28:50.196Z,40.13
2022-10-09T21:31:27.010Z,46.97
2022-10-09T21:33:59.102Z,45.20
2022-10-09T21:36:39.298Z,48.57
2022-10-09T21:39:18.354Z,48.63
2022-10-09T21:41:50.005Z,49.13
2022-10-09T21:44:21.028Z,49.63
2022-10-09T21:46:54.140Z,51.40
2022-10-09T21:49:28.205Z,55.00
2022-10-09T21:51:59.737Z,56.10
2022-10-09T21:54:34.340Z,57.57
2022-10-09T21:57:05.477Z,57.90
2022-10-09T21:59:37.680Z,56.77
2022-10-09T22:02:10.743Z,57.63
2022-10-09T22:04:41.783Z,57.07
2022-10-09T22:07:12.731Z,55.93
2022-10-09T22:09:44.252Z,57.60
2022-10-09T22:12:15.724Z,58.47
2022-10-09T22:14:46.749Z,60.13
2022-10-09T22:17:20.682Z,62.40
2022-10-09T22:19:51.765Z,59.03
2022-10-09T22:22:24.577Z,58.33
2022-10-09T22:24:56.441Z,60.43
2022-10-09T22:27:27.481Z,58.20
2022-10-09T22:29:58.529Z,54.07
2022-10-09T22:32:34.657Z,54.43
2022-10-09T22:35:05.660Z,52.77
2022-10-09T22:37:36.710Z,49.20
2022-10-09T22:40:08.255Z,46.80
2022-10-09T22:42:39.797Z,47.00
2022-10-09T22:45:12.855Z,50.53
2022-10-09T22:47:47.537Z,50.77
2022-10-09T22:50:18.751Z,52.50
2022-10-09T22:52:50.705Z,49.43
2022-10-09T22:55:25.012Z,51.70
2022-10-09T22:57:56.201Z,54.00
2022-10-09T23:00:27.751Z,56.00
2022-10-09T23:03:00.908Z,55.00
2022-10-09T23:05:31.957Z,51.37
2022-10-09T23:08:03.918Z,50.60
2022-10-09T23:10:35.060Z,51.03
2022-10-09T23:13:06.485Z,52.87
2022-10-09T23:15:39.062Z,54.53
2022-10-09T23:18:12.514Z,58.60
2022-10-09T23:20:44.042Z,58.27
2022-10-09T23:23:15.133Z,59.20
2022-10-09T23:25:46.236Z,60.43
2022-10-09T23:28:17.474Z,60.93
2022-10-09T23:30:48.687Z,67.70
2022-10-09T23:33:22.219Z,61.60
2022-10-09T23:35:53.617Z,64.83
2022-10-09T23:38:25.649Z,63.57
2022-10-09T23:41:00.881Z,69.57
2022-10-09T23:43:32.556Z,62.43
2022-10-09T23:46:06.208Z,43.97
2022-10-09T23:48:40.053Z,37.60
2022-10-09T23:51:13.487Z,39.67
2022-10-09T23:53:44.749Z,33.07
2022-10-09T23:56:26.513Z,32.97
2022-10-09T23:58:58.744Z,34.63
